Time;durP1;ratioP1;P1;durP2;ratioP2;P2;SDS_P1;SDS_P2;PMS_P1;PMS_P2;Temp;Humidity;BMP_temperature;BMP_pressure;BME280_temperature;BME280_humidity;BME280_pressure;Samples;Min_cycle;Max_cycle;Signal;HPM_P1;HPM_P2
2023/03/28 00:01:50;;;;;;;6.80;6.50;;;;;;;10.08;100.00;-11384.50;5091506;28;20188;-67
2023/03/28 00:04:21;;;;;;;6.83;6.53;;;;;;;10.08;100.00;-11066.31;5091760;28;20694;-67
2023/03/28 00:06:48;;;;;;;6.37;6.17;;;;;;;10.03;100.00;-10747.44;5094625;28;20200;-68
2023/03/28 00:09:16;;;;;;;6.93;6.63;;;;;;;10.01;100.00;-10428.97;5095661;28;20611;-68
2023/03/28 00:11:44;;;;;;;6.50;6.27;;;;;;;9.93;100.00;-10746.25;5095197;28;20243;-67
2023/03/28 00:14:13;;;;;;;5.93;5.73;;;;;;;9.89;100.00;-10109.41;5094753;28;20287;-68
2023/03/28 00:16:44;;;;;;;6.23;5.93;;;;;;;9.87;100.00;-9154.56;5095183;28;20191;-67
2023/03/28 00:19:14;;;;;;;6.57;6.27;;;;;;;9.93;100.00;-8836.81;5095633;28;20558;-67
2023/03/28 00:21:45;;;;;;;6.67;6.37;;;;;;;9.88;100.00;-8518.00;5095332;28;20191;-68
2023/03/28 00:24:13;;;;;;;6.67;6.37;;;;;;;9.84;100.00;-7562.63;5095214;28;20208;-68
2023/03/28 00:26:42;;;;;;;6.10;5.90;;;;;;;9.83;100.00;-6607.19;5094849;28;20227;-67
2023/03/28 00:29:14;;;;;;;5.93;5.70;;;;;;;9.77;100.00;-5014.13;5094914;28;20180;-68
2023/03/28 00:31:42;;;;;;;5.87;5.57;;;;;;;9.71;100.00;-2783.06;5095234;28;20258;-67
2023/03/28 00:34:09;;;;;;;5.43;5.23;;;;;;;9.61;100.00;-1188.97;5095117;28;20625;-67
2023/03/28 00:36:38;;;;;;;5.57;5.37;;;;;;;9.82;100.00;-1188.28;5094796;28;20219;-68
2023/03/28 00:39:06;;;;;;;5.23;5.03;;;;;;;9.77;100.00;87.75;5094905;28;20195;-67
2023/03/28 00:41:38;;;;;;;5.90;5.63;;;;;;;9.80;100.00;407.06;5094857;28;20270;-67
2023/03/28 00:44:39;;;;;;;5.67;5.47;;;;;;;9.78;100.00;406.94;5094742;28;20544;-67
2023/03/28 00:47:10;;;;;;;5.30;5.10;;;;;;;9.81;100.00;726.31;5095005;28;20212;-67
2023/03/28 00:49:37;;;;;;;5.80;5.60;;;;;;;9.85;100.00;1684.34;5094962;28;20711;-67
2023/03/28 00:52:06;;;;;;;5.50;5.10;;;;;;;9.96;100.00;2643.47;5094859;28;20597;-68
2023/03/28 00:54:38;;;;;;;5.60;5.30;;;;;;;9.94;100.00;5199.97;5094788;28;20555;-67
2023/03/28 00:57:07;;;;;;;5.10;4.90;;;;;;;9.99;100.00;8719.47;5094413;28;20237;-68
2023/03/28 00:59:36;;;;;;;5.67;5.47;;;;;;;9.94;100.00;9678.75;5094624;28;20682;-67
2023/03/28 01:02:03;;;;;;;5.80;5.60;;;;;;;9.91;100.00;8398.00;5094200;28;20184;-67
2023/03/28 01:04:35;;;;;;;5.87;5.67;;;;;;;9.89;100.00;8717.63;5094489;28;20664;-68
2023/03/28 01:07:03;;;;;;;5.27;5.07;;;;;;;9.85;100.00;10957.59;5094183;28;20261;-66
2023/03/28 01:09:32;;;;;;;5.50;5.30;;;;;;;9.86;100.00;12559.19;5094100;28;20215;-67
2023/03/28 01:12:00;;;;;;;5.87;5.57;;;;;;;9.85;100.00;13840.66;5093931;28;20267;-67
2023/03/28 01:14:29;;;;;;;5.77;5.57;;;;;;;9.85;100.00;13840.66;5094044;28;20240;-66
2023/03/28 01:16:56;;;;;;;5.90;5.70;;;;;;;9.68;100.00;15117.94;5093898;28;20666;-66
2023/03/28 01:19:37;;;;;;;6.17;5.77;;;;;;;9.76;100.00;17685.75;5093822;28;20188;-67
2023/03/28 01:22:45;;;;;;;6.10;5.90;;;;;;;9.90;100.00;16727.97;5094266;28;20268;-66
2023/03/28 01:25:38;;;;;;;6.13;5.73;;;;;;;9.89;100.00;19937.34;5085942;28;20616;-68
2023/03/28 01:28:18;;;;;;;6.10;5.90;;;;;;;9.94;100.00;20902.56;5091329;28;20223;-66
2023/03/28 01:31:24;;;;;;;6.63;6.33;;;;;;;9.80;100.00;26039.44;5093952;28;20282;-67
2023/03/28 01:34:24;;;;;;;6.83;6.57;;;;;;;9.96;100.00;29588.28;5093992;28;20192;-68
2023/03/28 01:37:05;;;;;;;6.80;6.50;;;;;;;9.87;100.00;32482.66;5093984;28;20582;-66
2023/03/28 01:39:57;;;;;;;6.53;6.33;;;;;;;9.71;100.00;42153.91;5093852;28;20234;-67
2023/03/28 01:42:32;;;;;;;7.33;7.03;;;;;;;9.88;100.00;51229.53;5093725;28;20271;-66
2023/03/28 01:45:10;;;;;;;6.63;6.40;;;;;;;9.91;100.00;59020.25;5093468;28;20220;-67
2023/03/28 01:47:40;;;;;;;7.13;6.83;;;;;;;9.84;100.00;61287.69;5093560;28;20230;-65
2023/03/28 01:50:14;;;;;;;6.97;6.60;;;;;;;9.81;100.00;67791.47;5093330;28;20275;-66
2023/03/28 01:52:51;;;;;;;7.00;6.70;;;;;;;9.82;100.00;67141.38;5093213;28;20302;-65
2023/03/28 01:55:22;;;;;;;6.67;6.40;;;;;;;9.75;100.00;67784.47;5093221;28;20267;-67
2023/03/28 01:57:55;;;;;;;7.03;6.73;;;;;;;9.81;100.00;75943.31;5093363;28;20218;-67
2023/03/28 02:00:28;;;;;;;6.60;6.30;;;;;;;9.86;100.00;78235.84;5093075;28;20267;-67
2023/03/28 02:03:00;;;;;;;6.77;6.57;;;;;;;9.90;100.00;78894.00;5093248;28;20622;-67
2023/03/28 02:05:30;;;;;;;7.20;6.90;;;;;;;9.94;100.00;89372.47;5092960;28;20203;-68
2023/03/28 02:08:01;;;;;;;7.33;6.80;;;;;;;9.79;100.00;97880.19;5093156;28;20280;-67
2023/03/28 02:10:32;;;;;;;7.03;6.73;;;;;;;9.90;100.00;105134.53;5092761;28;20232;-67
2023/03/28 02:13:02;;;;;;;7.37;7.07;;;;;;;9.85;100.00;110397.09;5092793;28;20238;-67
2023/03/28 02:15:32;;;;;;;6.90;6.60;;;;;;;9.86;100.00;111389.25;5092803;28;20631;-66
2023/03/28 02:18:05;;;;;;;6.83;6.53;;;;;;;9.78;100.00;103468.38;5092935;28;20227;-66
2023/03/28 02:20:36;;;;;;;6.63;6.33;;;;;;;9.86;100.00;112707.81;5092698;28;20187;-66
2023/03/28 02:23:11;;;;;;;7.53;7.23;;;;;;;9.79;100.00;108737.78;5093006;28;20284;-67
2023/03/28 02:25:38;;;;;;;7.57;7.23;;;;;;;9.74;100.00;108399.03;5092882;28;20626;-66
2023/03/28 02:28:09;;;;;;;7.40;7.00;;;;;;;9.73;100.00;100170.22;5092275;28;20291;-67
2023/03/28 02:30:36;;;;;;;7.67;7.00;;;;;;;9.74;100.00;102802.50;5091774;28;20184;-66
2023/03/28 02:33:07;;;;;;;7.13;6.73;;;;;;;9.57;100.00;117274.09;5092854;28;20623;-66
2023/03/28 02:35:46;;;;;;;6.60;6.30;;;;;;;9.56;100.00;127854.88;5092374;28;20184;-67
2023/03/28 02:38:20;;;;;;;6.70;6.40;;;;;;;9.32;100.00;146843.84;5092404;28;20184;-67
2023/03/28 02:40:55;;;;;;;6.33;6.07;;;;;;;9.30;100.00;148381.16;5092657;28;20694;-66
2023/03/28 02:43:48;;;;;;;6.73;6.43;;;;;;;9.21;100.00;148357.22;5092335;28;20215;-67
2023/03/28 02:46:29;;;;;;;6.63;6.33;;;;;;;8.99;100.00;148304.19;5092095;28;20298;-67
2023/03/28 02:49:22;;;;;;;7.10;6.70;;;;;;;8.95;100.00;148292.81;5092425;28;20666;-67
2023/03/28 02:51:57;;;;;;;6.77;6.37;;;;;;;8.88;100.00;148275.09;5092244;28;20195;-66
2023/03/28 02:54:35;;;;;;;6.67;6.37;;;;;;;8.58;100.00;148201.91;5092071;28;20273;-66
2023/03/28 02:57:09;;;;;;;7.03;6.47;;;;;;;8.50;100.00;147971.28;5092444;28;20219;-67
2023/03/28 02:59:42;;;;;;;5.90;5.70;;;;;;;8.38;100.00;148151.44;5090863;28;20267;-66
2023/03/28 03:02:11;;;;;;;5.60;5.30;;;;;;;8.24;100.00;148116.06;5092364;28;20273;-67
2023/03/28 03:04:38;;;;;;;6.00;5.60;;;;;;;8.23;100.00;148113.56;5092098;28;20223;-66
2023/03/28 03:07:08;;;;;;;5.73;5.33;;;;;;;8.12;100.00;148085.78;5091973;28;20250;-66
2023/03/28 03:09:36;;;;;;;5.10;4.90;;;;;;;7.92;100.00;148035.34;5092185;28;20250;-66
2023/03/28 03:12:03;;;;;;;4.87;4.67;;;;;;;7.93;100.00;148037.88;5092145;28;20722;-66
2023/03/28 03:14:30;;;;;;;4.73;4.53;;;;;;;7.63;100.00;147963.47;5092737;28;20269;-67
2023/03/28 03:16:57;;;;;;;4.63;4.43;;;;;;;7.76;100.00;147997.53;5092501;28;20278;-65
2023/03/28 03:19:25;;;;;;;4.10;3.90;;;;;;;7.79;100.00;148003.81;5092694;28;20224;-66
2023/03/28 03:21:52;;;;;;;3.80;3.70;;;;;;;7.57;100.00;147949.56;5092588;28;20223;-66
2023/03/28 03:24:20;;;;;;;10.73;4.20;;;;;;;7.56;100.00;147945.78;5092998;28;20192;-65
2023/03/28 03:26:48;;;;;;;3.90;3.47;;;;;;;7.45;100.00;147919.31;5093076;28;20257;-65
2023/03/28 03:29:15;;;;;;;3.10;3.00;;;;;;;7.45;100.00;147919.31;5092470;28;20188;-65
2023/03/28 03:31:43;;;;;;;3.13;3.03;;;;;;;7.42;100.00;147910.50;5092624;28;20287;-66
2023/03/28 03:34:10;;;;;;;4.00;2.97;;;;;;;7.31;100.00;147884.00;5092266;28;20267;-65
2023/03/28 03:36:37;;;;;;;3.73;3.43;;;;;;;7.26;100.00;147871.41;5091836;28;20237;-66
2023/03/28 03:39:04;;;;;;;2.93;2.73;;;;;;;7.13;100.00;147838.66;5092230;28;20642;-65
2023/03/28 03:41:31;;;;;;;2.30;2.20;;;;;;;7.15;100.00;147844.94;5095051;28;20627;-66
2023/03/28 03:43:59;;;;;;;2.20;2.10;;;;;;;6.98;100.00;147800.81;5095792;28;20196;-66
2023/03/28 03:46:26;;;;;;;2.03;1.93;;;;;;;7.05;100.00;147818.44;5095782;28;20212;-65
2023/03/28 03:48:54;;;;;;;2.27;2.03;;;;;;;6.98;100.00;147800.81;5095672;28;20187;-66
2023/03/28 03:51:21;;;;;;;1.80;1.80;;;;;;;6.99;100.00;147803.34;5095533;28;20188;-66
2023/03/28 03:53:49;;;;;;;2.07;1.60;;;;;;;6.89;100.00;147780.66;5095605;28;20223;-65
2023/03/28 03:56:16;;;;;;;1.67;1.57;;;;;;;6.89;100.00;147780.66;5095885;28;20235;-66
2023/03/28 03:58:43;;;;;;;1.67;1.57;;;;;;;6.91;100.00;147784.47;5095742;28;20674;-65
2023/03/28 04:01:12;;;;;;;2.00;1.80;;;;;;;6.71;100.00;147735.28;5095719;28;20664;-67
2023/03/28 04:03:40;;;;;;;1.93;1.57;;;;;;;6.83;100.00;147764.31;5095778;28;20278;-65
2023/03/28 04:06:10;;;;;;;1.87;1.77;;;;;;;6.82;100.00;147761.78;5095547;28;20180;-65
2023/03/28 04:08:40;;;;;;;1.43;1.33;;;;;;;6.74;100.00;147742.88;5095518;28;20212;-66
2023/03/28 04:11:09;;;;;;;1.70;1.60;;;;;;;6.80;100.00;147756.72;5095687;28;20307;-65
2023/03/28 04:13:36;;;;;;;1.70;1.60;;;;;;;6.78;100.00;147752.97;5095587;28;20593;-66
2023/03/28 04:16:03;;;;;;;1.87;1.70;;;;;;;6.74;100.00;147742.88;5095156;28;20187;-65
2023/03/28 04:18:33;;;;;;;1.60;1.50;;;;;;;6.75;100.00;147744.09;5095550;28;20356;-67
2023/03/28 04:21:01;;;;;;;1.70;1.60;;;;;;;6.75;100.00;147745.34;5095188;28;20192;-66
2023/03/28 04:23:28;;;;;;;2.93;1.63;;;;;;;6.63;100.00;147715.13;5095048;28;20195;-66
2023/03/28 04:25:57;;;;;;;1.63;1.63;;;;;;;6.63;100.00;147715.13;5094938;28;20215;-65
2023/03/28 04:28:26;;;;;;;1.67;1.57;;;;;;;6.65;100.00;147720.19;5095057;28;20264;-66
2023/03/28 04:30:56;;;;;;;6.63;2.10;;;;;;;6.69;100.00;147730.28;5095311;28;20184;-65
2023/03/28 04:33:24;;;;;;;2.20;1.83;;;;;;;6.60;100.00;147706.31;5095272;28;20651;-65
2023/03/28 04:35:58;;;;;;;1.73;1.57;;;;;;;6.66;100.00;147721.47;5095293;28;20546;-67
2023/03/28 04:38:27;;;;;;;4.47;1.77;;;;;;;6.66;100.00;147722.66;5095419;28;20648;-66
2023/03/28 04:40:56;;;;;;;2.10;2.00;;;;;;;6.62;100.00;147712.59;5095023;28;20279;-66
2023/03/28 04:43:24;;;;;;;2.30;2.20;;;;;;;6.58;100.00;147702.53;5094956;28;20188;-65
2023/03/28 04:45:51;;;;;;;2.10;2.00;;;;;;;6.57;100.00;147698.78;5094729;28;20180;-66
2023/03/28 04:48:18;;;;;;;3.03;2.10;;;;;;;6.54;100.00;147691.19;5094711;28;20235;-66
2023/03/28 04:50:46;;;;;;;3.83;1.97;;;;;;;6.57;100.00;147700.03;5094669;28;20276;-66
2023/03/28 04:53:14;;;;;;;3.63;2.00;;;;;;;6.59;100.00;147705.06;5093522;28;20231;-65
2023/03/28 04:55:47;;;;;;;3.37;1.97;;;;;;;6.61;100.00;147710.13;5094746;28;20183;-65
2023/03/28 04:58:14;;;;;;;2.50;2.30;;;;;;;6.49;100.00;147679.88;5094524;28;20184;-66
2023/03/28 05:00:43;;;;;;;4.87;2.50;;;;;;;6.45;100.00;147669.75;5094793;28;20267;-65
2023/03/28 05:03:13;;;;;;;2.57;2.47;;;;;;;6.53;100.00;147689.97;5094207;28;20187;-64
2023/03/28 05:05:41;;;;;;;2.57;2.43;;;;;;;6.58;100.00;147701.25;5094593;28;20184;-63
2023/03/28 05:08:08;;;;;;;2.53;2.20;;;;;;;6.56;100.00;147697.50;5094236;28;20216;-62
2023/03/28 05:10:36;;;;;;;3.93;2.40;;;;;;;6.25;100.00;147620.66;5094186;28;20314;-65
2023/03/28 05:13:03;;;;;;;3.33;2.93;;;;;;;6.58;100.00;147702.53;5094746;28;20219;-65
2023/03/28 05:15:30;;;;;;;8.33;2.83;;;;;;;6.63;100.00;147715.13;5094417;28;20278;-65
2023/03/28 05:17:57;;;;;;;2.50;2.30;;;;;;;6.70;100.00;147732.81;5094407;28;20578;-65
2023/03/28 05:20:24;;;;;;;2.60;2.50;;;;;;;6.64;100.00;147717.66;5094028;28;20245;-64
2023/03/28 05:22:51;;;;;;;3.33;2.43;;;;;;;6.78;100.00;147752.97;5094345;28;20266;-65
2023/03/28 05:25:19;;;;;;;2.73;2.53;;;;;;;6.82;100.00;147763.03;5094336;28;20273;-65
2023/03/28 05:27:47;;;;;;;3.10;2.90;;;;;;;6.73;100.00;147740.34;5093610;28;20296;-65
2023/03/28 05:30:15;;;;;;;3.33;2.90;;;;;;;6.83;100.00;147765.50;5093943;28;20626;-65
2023/03/28 05:32:42;;;;;;;2.60;2.50;;;;;;;7.22;100.00;147862.56;5093493;28;20184;-66
2023/03/28 05:35:11;;;;;;;3.00;2.80;;;;;;;7.15;100.00;147843.69;5093427;28;20250;-65
2023/03/28 05:37:39;;;;;;;3.43;3.23;;;;;;;7.41;100.00;147909.25;5093732;28;20643;-65
2023/03/28 05:40:09;;;;;;;4.23;2.87;;;;;;;7.34;100.00;147891.59;5093719;28;20188;-65
2023/03/28 05:42:36;;;;;;;3.37;2.60;;;;;;;7.59;100.00;147953.38;5092299;28;20184;-65
2023/03/28 05:45:07;;;;;;;6.07;3.03;;;;;;;7.69;100.00;147979.84;5093484;28;20679;-65
2023/03/28 05:47:34;;;;;;;3.03;2.77;;;;;;;7.84;100.00;148015.16;5093133;28;20295;-66
2023/03/28 05:50:01;;;;;;;6.33;3.10;;;;;;;7.94;100.00;148040.34;5093472;28;20192;-66
2023/03/28 05:52:28;;;;;;;6.17;2.67;;;;;;;8.02;100.00;148061.81;5093569;28;20631;-65
2023/03/28 05:54:56;;;;;;;5.43;3.43;;;;;;;8.24;100.00;148116.06;5093372;28;20246;-65
2023/03/28 05:57:23;;;;;;;3.17;2.97;;;;;;;8.79;100.00;148253.66;5093026;28;20185;-66
2023/03/28 05:59:54;;;;;;;3.43;3.23;;;;;;;9.64;100.00;148467.03;5093110;28;20195;-67
2023/03/28 06:02:23;;;;;;;9.30;2.83;;;;;;;9.43;100.00;148414.00;5093088;28;20536;-66
2023/03/28 06:04:53;;;;;;;4.00;3.60;;;;;;;9.30;100.00;148379.91;5092421;28;20270;-66
2023/03/28 06:07:21;;;;;;;4.13;3.40;;;;;;;9.39;100.00;148403.91;5092314;28;20223;-67
2023/03/28 06:09:49;;;;;;;3.27;3.00;;;;;;;9.33;100.00;148387.50;5092640;28;20184;-65
2023/03/28 06:12:16;;;;;;;3.00;2.87;;;;;;;9.24;100.00;148364.78;5092635;28;20224;-67
2023/03/28 06:14:43;;;;;;;3.40;3.20;;;;;;;8.87;100.00;148273.84;5092486;28;20275;-65
2023/03/28 06:17:10;;;;;;;10.27;3.50;;;;;;;8.85;100.00;148267.56;5093149;28;20204;-65
2023/03/28 06:19:39;;;;;;;4.40;3.37;;;;;;;8.71;100.00;148234.72;5092963;28;20599;-64
2023/03/28 06:22:06;;;;;;;3.50;2.80;;;;;;;8.81;100.00;148258.72;5091605;28;20226;-65
2023/03/28 06:24:33;;;;;;;2.80;2.60;;;;;;;8.96;100.00;148295.31;5093041;28;20609;-65
2023/03/28 06:27:00;;;;;;;3.97;3.53;;;;;;;9.27;100.00;148373.59;5092977;28;20223;-66
2023/03/28 06:29:27;;;;;;;3.37;3.17;;;;;;;9.45;100.00;148417.81;5092894;28;20214;-65
2023/03/28 06:31:54;;;;;;;2.67;2.57;;;;;;;9.45;100.00;148417.81;5092608;28;20257;-65
2023/03/28 06:34:21;;;;;;;2.97;2.77;;;;;;;9.18;100.00;148352.13;5092854;28;20625;-65
2023/03/28 06:36:49;;;;;;;3.17;2.97;;;;;;;9.10;100.00;148331.94;5092368;28;20188;-66
2023/03/28 06:39:16;;;;;;;3.33;2.80;;;;;;;9.02;100.00;148311.75;5092779;28;20249;-66
2023/03/28 06:41:44;;;;;;;3.70;3.10;;;;;;;8.87;100.00;148273.84;5092399;28;20234;-65
2023/03/28 06:44:11;;;;;;;3.00;2.70;;;;;;;9.30;100.00;148381.16;5092933;28;20237;-65
2023/03/28 06:46:38;;;;;;;3.97;2.63;;;;;;;9.84;100.00;148515.06;5092514;28;20191;-66
2023/03/28 06:49:06;;;;;;;2.70;2.30;;;;;;;10.18;100.00;148601.03;5092282;28;20371;-68
2023/03/28 06:51:33;;;;;;;2.60;2.50;;;;;;;9.91;100.00;148532.75;5092414;28;20558;-66
2023/03/28 06:54:01;;;;;;;7.63;2.93;;;;;;;9.52;100.00;148436.72;5091723;28;20270;-66
2023/03/28 06:56:29;;;;;;;3.20;3.10;;;;;;;9.48;100.00;148426.63;5092222;28;20634;-66
2023/03/28 06:58:55;;;;;;;2.77;2.57;;;;;;;9.34;100.00;148391.25;5092173;28;20187;-66
2023/03/28 07:01:22;;;;;;;2.60;2.40;;;;;;;9.38;100.00;148401.34;5092298;28;20596;-65
2023/03/28 07:03:49;;;;;;;2.80;2.60;;;;;;;9.29;100.00;148377.41;5092211;28;20279;-65
2023/03/28 07:06:17;;;;;;;2.80;2.70;;;;;;;9.01;100.00;148307.94;5091864;28;20215;-65
2023/03/28 07:08:44;;;;;;;2.57;2.47;;;;;;;8.53;100.00;148188.06;5092291;28;20644;-65
2023/03/28 07:11:14;;;;;;;3.13;2.93;;;;;;;8.44;100.00;148165.34;5084899;28;20266;-65
2023/03/28 07:13:41;;;;;;;2.57;2.40;;;;;;;8.60;100.00;148206.97;5077603;28;20205;-66
2023/03/28 07:16:12;;;;;;;2.90;2.80;;;;;;;8.42;100.00;148160.28;5070858;28;20188;-66
2023/03/28 07:18:40;;;;;;;2.97;2.87;;;;;;;8.48;100.00;148176.69;5071714;28;20235;-65
2023/03/28 07:21:08;;;;;;;2.40;2.30;;;;;;;8.15;100.00;148094.59;5090469;28;20264;-66
2023/03/28 07:23:35;;;;;;;5.13;2.73;;;;;;;7.89;100.00;148029.06;5090761;28;20241;-64
2023/03/28 07:26:02;;;;;;;5.83;2.87;;;;;;;8.15;100.00;148094.59;5091178;28;20223;-65
2023/03/28 07:28:33;;;;;;;3.20;3.00;;;;;;;8.11;100.00;148083.25;5090567;28;20302;-65
2023/03/28 07:31:01;;;;;;;7.23;3.30;;;;;;;8.09;100.00;148078.22;5091454;28;20623;-65
2023/03/28 07:33:28;;;;;;;3.30;3.10;;;;;;;8.03;100.00;148064.34;5091115;28;20267;-65
2023/03/28 07:35:59;;;;;;;2.97;2.87;;;;;;;8.08;100.00;148075.69;5091004;28;20187;-65
2023/03/28 07:38:26;;;;;;;3.13;2.97;;;;;;;8.27;100.00;148123.66;5091652;28;20283;-65
2023/03/28 07:40:54;;;;;;;6.67;2.97;;;;;;;8.24;100.00;148116.06;5091930;28;20267;-65
2023/03/28 07:43:21;;;;;;;4.40;3.43;;;;;;;8.05;100.00;148068.13;5090726;28;20271;-65
2023/03/28 07:45:50;;;;;;;5.97;3.37;;;;;;;8.15;100.00;148093.34;5091297;28;20634;-67
2023/03/28 07:48:17;;;;;;;4.77;3.50;;;;;;;8.15;100.00;148093.34;5092045;28;20711;-66
2023/03/28 07:50:44;;;;;;;3.20;3.10;;;;;;;8.08;100.00;148076.97;5091079;28;20544;-65
2023/03/28 07:53:11;;;;;;;4.60;3.23;;;;;;;7.98;100.00;148050.44;5091436;28;20519;-64
2023/03/28 07:55:39;;;;;;;4.53;4.23;;;;;;;7.99;100.00;148054.25;5091431;28;20188;-65
2023/03/28 07:58:07;;;;;;;5.43;4.20;;;;;;;8.11;100.00;148083.25;5090980;28;20192;-65
2023/03/28 08:00:35;;;;;;;3.93;3.70;;;;;;;8.27;100.00;148124.88;5090924;28;20180;-66
2023/03/28 08:03:07;;;;;;;4.17;3.93;;;;;;;8.42;100.00;148160.28;5090892;28;20241;-66
2023/03/28 08:05:40;;;;;;;5.17;4.07;;;;;;;8.40;100.00;148156.47;5090246;28;20275;-66
2023/03/28 08:08:07;;;;;;;4.13;3.80;;;;;;;8.57;100.00;148199.38;5091309;28;20204;-65
2023/03/28 08:10:35;;;;;;;4.07;3.70;;;;;;;8.49;100.00;148177.91;5090746;28;20235;-65
2023/03/28 08:13:03;;;;;;;4.07;3.73;;;;;;;8.55;100.00;148193.09;5089875;28;20188;-67
2023/03/28 08:15:30;;;;;;;4.20;3.80;;;;;;;8.46;100.00;148171.63;5091050;28;20231;-65
2023/03/28 08:17:57;;;;;;;3.60;3.50;;;;;;;8.52;100.00;148186.78;5091158;28;20245;-66
2023/03/28 08:20:26;;;;;;;3.50;3.27;;;;;;;8.34;100.00;148141.34;5090007;28;20188;-66
2023/03/28 08:22:52;;;;;;;4.03;3.80;;;;;;;8.50;100.00;148181.72;5091035;28;20187;-66
2023/03/28 08:25:21;;;;;;;3.80;3.70;;;;;;;8.65;100.00;148219.63;5091406;28;20203;-66
2023/03/28 08:27:48;;;;;;;3.70;3.40;;;;;;;8.79;100.00;148253.66;5094423;28;20188;-66
2023/03/28 08:30:15;;;;;;;3.90;3.60;;;;;;;8.86;100.00;148271.34;5095087;28;20192;-65
2023/03/28 08:32:42;;;;;;;3.30;3.20;;;;;;;8.81;100.00;148258.72;5095335;28;20536;-67
2023/03/28 08:35:10;;;;;;;3.63;3.37;;;;;;;8.88;100.00;148275.09;5094679;28;20553;-66
2023/03/28 08:37:38;;;;;;;3.23;3.13;;;;;;;8.75;100.00;148242.28;5095413;28;20238;-65
2023/03/28 08:40:09;;;;;;;3.50;3.40;;;;;;;8.82;100.00;148260.00;5094986;28;20261;-65
2023/03/28 08:42:50;;;;;;;5.07;3.40;;;;;;;9.00;100.00;148305.41;5095064;28;20659;-65
2023/03/28 08:45:34;;;;;;;3.63;3.47;;;;;;;9.08;100.00;148326.88;5094757;28;20279;-65
2023/03/28 08:48:11;;;;;;;3.70;3.30;;;;;;;9.06;100.00;148320.56;5094389;28;20208;-65
2023/03/28 08:50:42;;;;;;;3.30;3.10;;;;;;;9.17;100.00;148348.31;5094281;28;20271;-66
2023/03/28 08:53:20;;;;;;;3.23;3.03;;;;;;;9.22;100.00;148359.69;5094693;28;20227;-65
2023/03/28 08:55:48;;;;;;;3.30;3.20;;;;;;;9.18;100.00;148350.88;5094861;28;20551;-66
2023/03/28 08:58:22;;;;;;;2.90;2.70;;;;;;;9.24;100.00;148366.03;5094188;28;20253;-65
2023/03/28 09:00:50;;;;;;;4.80;3.50;;;;;;;9.14;100.00;148340.75;5094171;28;20184;-66
2023/03/28 09:03:20;;;;;;;4.87;3.30;;;;;;;9.17;100.00;148348.31;5094451;28;20192;-66
2023/03/28 09:05:49;;;;;;;5.03;3.40;;;;;;;9.37;100.00;148398.88;5094822;28;20212;-66
2023/03/28 09:08:47;;;;;;;7.40;3.57;;;;;;;9.28;100.00;148376.13;5094902;28;20626;-67
2023/03/28 09:11:26;;;;;;;6.53;3.17;;;;;;;9.23;100.00;148362.22;5094302;28;20235;-68
2023/03/28 09:14:09;;;;;;;4.37;3.57;;;;;;;9.28;100.00;148376.13;5093972;28;20196;-65
2023/03/28 09:16:50;;;;;;;3.10;2.90;;;;;;;9.23;100.00;148362.22;5094377;28;20191;-65
2023/03/28 09:19:39;;;;;;;3.40;3.27;;;;;;;9.39;100.00;148403.91;5094240;28;20555;-66
2023/03/28 09:22:17;;;;;;;4.53;3.00;;;;;;;9.40;100.00;148406.44;5093914;28;20238;-66
2023/03/28 09:24:56;;;;;;;11.27;3.33;;;;;;;9.53;100.00;148439.28;5094067;28;20180;-66
2023/03/28 09:27:28;;;;;;;9.97;3.17;;;;;;;9.29;100.00;148378.66;5094012;28;20702;-65
2023/03/28 09:30:01;;;;;;;7.43;3.47;;;;;;;9.64;100.00;148467.03;5094187;28;20626;-67
2023/03/28 09:32:33;;;;;;;3.00;2.80;;;;;;;9.83;100.00;148512.53;5094381;28;20188;-67
2023/03/28 09:35:02;;;;;;;3.03;2.83;;;;;;;9.86;100.00;148520.09;5093776;28;20226;-67
2023/03/28 09:37:31;;;;;;;2.60;2.40;;;;;;;9.63;100.00;148464.50;5093663;28;20185;-67
2023/03/28 09:40:07;;;;;;;2.97;2.87;;;;;;;9.85;100.00;148517.56;5093610;28;20231;-66
2023/03/28 09:42:42;;;;;;;2.70;2.60;;;;;;;9.67;100.00;148473.38;5093786;28;20194;-66
2023/03/28 09:45:31;;;;;;;3.93;2.80;;;;;;;9.65;100.00;148468.31;5094211;28;20187;-67
2023/03/28 09:47:58;;;;;;;4.20;2.87;;;;;;;9.69;100.00;148478.41;5093742;28;20283;-66
2023/03/28 09:50:25;;;;;;;2.80;2.70;;;;;;;9.61;100.00;148459.47;5093897;28;20184;-65
2023/03/28 09:52:56;;;;;;;6.67;3.20;;;;;;;9.57;100.00;148448.09;5093970;28;20184;-66
2023/03/28 09:55:26;;;;;;;6.43;3.10;;;;;;;9.35;100.00;148393.81;5093783;28;20210;-66
2023/03/28 09:58:06;;;;;;;16.13;3.20;;;;;;;9.48;100.00;148426.63;5093276;28;20222;-66
2023/03/28 10:00:37;;;;;;;7.10;3.40;;;;;;;9.36;100.00;148396.34;5093171;28;20570;-66
2023/03/28 10:03:06;;;;;;;3.30;3.13;;;;;;;9.40;100.00;148405.16;5093108;28;20189;-66
2023/03/28 10:05:37;;;;;;;3.20;3.00;;;;;;;9.43;100.00;148412.72;5093648;28;20180;-66
2023/03/28 10:08:18;;;;;;;3.57;3.27;;;;;;;9.43;100.00;148414.00;5093059;28;20191;-66
2023/03/28 10:10:54;;;;;;;5.90;2.87;;;;;;;9.31;100.00;148383.69;5093224;28;20232;-65
2023/03/28 10:13:22;;;;;;;3.20;2.93;;;;;;;9.21;100.00;148357.22;5093111;28;20184;-65
2023/03/28 10:15:50;;;;;;;3.17;3.00;;;;;;;9.13;100.00;148338.22;5092100;28;20206;-65
2023/03/28 10:18:23;;;;;;;3.20;2.90;;;;;;;9.00;100.00;148305.41;5093282;28;20327;-65
2023/03/28 10:21:03;;;;;;;2.80;2.70;;;;;;;9.10;100.00;148330.66;5093152;28;20232;-66
2023/03/28 10:23:30;;;;;;;3.37;2.57;;;;;;;8.97;100.00;148297.84;5092774;28;20199;-67
2023/03/28 10:26:02;;;;;;;2.73;2.63;;;;;;;8.85;100.00;148267.56;5091606;28;20674;-66
2023/03/28 10:28:32;;;;;;;3.33;3.13;;;;;;;8.89;100.00;148277.66;5086299;28;20223;-65
2023/03/28 10:31:01;;;;;;;2.90;2.80;;;;;;;8.91;100.00;148283.94;5093229;28;20623;-66
2023/03/28 10:33:33;;;;;;;5.80;2.73;;;;;;;8.92;100.00;148286.47;5093576;28;20234;-66
2023/03/28 10:36:05;;;;;;;7.43;3.03;;;;;;;8.92;100.00;148285.22;5092972;28;20222;-66
2023/03/28 10:38:36;;;;;;;3.33;3.03;;;;;;;8.99;100.00;148302.91;5093091;28;20207;-66
2023/03/28 10:41:09;;;;;;;3.43;3.13;;;;;;;9.05;100.00;148318.03;5092976;28;20692;-65
2023/03/28 10:43:39;;;;;;;2.97;2.80;;;;;;;9.03;100.00;148314.28;5092615;28;20184;-66
2023/03/28 10:46:12;;;;;;;3.37;3.17;;;;;;;9.09;100.00;148328.13;5085327;28;20250;-67
2023/03/28 10:48:42;;;;;;;3.83;3.37;;;;;;;9.06;100.00;148321.84;5072621;28;20677;-65
2023/03/28 10:51:16;;;;;;;3.40;3.30;;;;;;;8.96;100.00;148295.31;5071174;28;20275;-66
2023/03/28 10:54:07;;;;;;;3.67;3.40;;;;;;;8.87;100.00;148272.63;5072460;28;20639;-66
2023/03/28 10:56:41;;;;;;;3.63;3.20;;;;;;;8.93;100.00;148287.75;5069355;28;20201;-65
2023/03/28 10:59:22;;;;;;;3.23;3.13;;;;;;;8.78;100.00;148251.16;5072831;28;20256;-67
2023/03/28 11:02:01;;;;;;;3.37;3.17;;;;;;;8.90;100.00;148280.19;5072401;28;20237;-66
2023/03/28 11:04:54;;;;;;;3.10;2.90;;;;;;;8.99;100.00;148304.19;5072464;28;20246;-66
2023/03/28 11:07:26;;;;;;;3.50;3.20;;;;;;;8.89;100.00;148277.66;5072350;28;20268;-66
2023/03/28 11:09:59;;;;;;;2.97;2.87;;;;;;;8.92;100.00;148286.47;5072065;28;20295;-66
2023/03/28 11:12:38;;;;;;;4.53;3.23;;;;;;;8.91;100.00;148282.72;5071629;28;20228;-65
2023/03/28 11:15:12;;;;;;;3.53;3.37;;;;;;;9.07;100.00;148324.38;5072392;28;20189;-66
2023/03/28 11:17:50;;;;;;;3.87;3.47;;;;;;;9.04;100.00;148316.75;5072362;28;20232;-67
2023/03/28 11:20:28;;;;;;;4.00;3.63;;;;;;;9.00;100.00;148305.41;5072531;28;20180;-66
2023/03/28 11:23:15;;;;;;;4.67;4.43;;;;;;;9.11;100.00;148334.47;5071893;28;20279;-66
2023/03/28 11:25:50;;;;;;;4.53;3.97;;;;;;;9.17;100.00;148348.31;5072068;28;20193;-66
2023/03/28 11:28:28;;;;;;;6.83;4.27;;;;;;;9.26;100.00;148369.78;5071637;28;20195;-66
2023/03/28 11:30:57;;;;;;;3.47;3.37;;;;;;;9.29;100.00;148377.41;5072037;28;20219;-66
2023/03/28 11:33:32;;;;;;;4.10;3.50;;;;;;;9.44;100.00;148416.53;5071938;28;20192;-66
2023/03/28 11:36:03;;;;;;;3.80;3.50;;;;;;;9.31;100.00;148383.69;5071692;28;20226;-66
2023/03/28 11:38:37;;;;;;;3.83;3.53;;;;;;;9.45;100.00;148419.06;5072430;28;20185;-66
2023/03/28 11:41:10;;;;;;;3.90;3.70;;;;;;;9.35;100.00;148393.81;5071801;28;20195;-66
2023/03/28 11:43:45;;;;;;;6.90;3.80;;;;;;;9.40;100.00;148406.44;5071813;28;20181;-66
2023/03/28 11:46:18;;;;;;;7.53;4.20;;;;;;;9.60;100.00;148455.66;5072377;28;20204;-66